York, Wisconsin
Current Conditions -  °F | °C
As of 4:54 AM on Saturday 20 Dec 2014 (Local Time) from KMFI Reporting Station
Haze Haze  
Wind Chill: 17°   Ceiling: 400
Heat Index: 25°   Visibility: 5mi
Dew Point: 22°   Wind: 7mph
Humidity: 88%   Direction: 160°SSE
Pressure: 30.21"   Gusts: NA
Location:  44.5388°N, 90.4382°W
Report Text: KMFI 201054Z AUTO 16006KT 5SM BR OVC004 M04/M06 A3021 RMK AO2 SLP250 I1001 T10391056
Loading
Personal Weather Stations






























Interactive Weather Map New forecast layout! Learn more

10-Day Weather Forecast

Advertisements
Track Severe Weather on mobile